Terminal Aerodrome Forecast
Issued by NWS Wilmington, OH

Current Version | Previous Version | Text Only | Print | Product List | Glossary Off
Versions: 1 2 3 4 5 6 7 8 9 10 11 12 13 14 15 16 17 18 19 20 21 22 23 24

000
FTUS41 KILN 030200 AAA
TAFILN
TAF AMD
KILN 030243Z 0303/0324 11004KT P6SM SCT025
     FM030500 08004KT P6SM BKN025
     FM030900 05004KT 4SM BR OVC015
      TEMPO 0309/0312 2SM BR OVC008
     FM031500 06005KT P6SM BKN025
     FM031800 07006KT P6SM BKN035
     FM032300 08005KT P6SM SCT035=

USA.gov is the U.S. government's official web portal to all federal, state and local government web resources and services.